createdAt,value
2022-12-01T00:01:31.825Z,18.73
2022-12-01T00:03:59.859Z,18.57
2022-12-01T00:06:28.188Z,18.20
2022-12-01T00:09:19.287Z,18.17
2022-12-01T00:11:50.301Z,17.23
2022-12-01T00:14:19.263Z,18.43
2022-12-01T00:16:47.665Z,18.37
2022-12-01T00:19:15.833Z,17.77
2022-12-01T00:21:44.376Z,18.80
2022-12-01T00:24:12.949Z,19.83
2022-12-01T00:26:41.393Z,18.57
2022-12-01T00:29:11.057Z,18.90
2022-12-01T00:31:39.453Z,17.80
2022-12-01T00:34:11.286Z,19.80
2022-12-01T00:36:40.361Z,18.67
2022-12-01T00:39:08.634Z,18.67
2022-12-01T00:41:37.051Z,17.50
2022-12-01T00:44:05.528Z,18.27
2022-12-01T00:46:35.463Z,19.53
2022-12-01T00:49:03.735Z,18.00
2022-12-01T00:51:32.028Z,19.23
2022-12-01T00:54:00.082Z,17.60
2022-12-01T00:56:28.375Z,19.37
2022-12-01T00:58:56.461Z,18.87
2022-12-01T01:01:24.638Z,17.00
2022-12-01T01:03:54.252Z,19.40
2022-12-01T01:06:22.275Z,19.40
2022-12-01T01:08:50.942Z,18.43
2022-12-01T01:11:19.119Z,20.00
2022-12-01T01:13:47.953Z,17.57
2022-12-01T01:16:18.499Z,17.53
2022-12-01T01:18:47.011Z,17.37
2022-12-01T01:21:18.493Z,19.60
2022-12-01T01:23:46.997Z,18.90
2022-12-01T01:26:17.339Z,17.87
2022-12-01T01:28:45.942Z,18.00
2022-12-01T01:31:16.667Z,18.63
2022-12-01T01:33:45.175Z,18.53
2022-12-01T01:36:14.116Z,16.40
2022-12-01T01:38:44.303Z,17.43
2022-12-01T01:41:13.194Z,17.63
2022-12-01T01:43:46.745Z,17.07
2022-12-01T01:46:17.485Z,17.40
2022-12-01T01:48:50.210Z,18.47
2022-12-01T01:51:21.612Z,17.37
2022-12-01T01:53:56.003Z,17.10
2022-12-01T01:56:24.379Z,15.60
2022-12-01T01:58:53.966Z,17.43
2022-12-01T02:01:22.281Z,17.27
2022-12-01T02:03:53.234Z,18.17
2022-12-01T02:06:21.820Z,16.97
2022-12-01T02:08:51.607Z,17.80
2022-12-01T02:11:53.116Z,17.77
2022-12-01T02:14:38.767Z,17.03
2022-12-01T02:17:17.961Z,17.27
2022-12-01T02:20:05.305Z,16.27
2022-12-01T02:22:54.580Z,16.10
2022-12-01T02:25:34.657Z,16.20
2022-12-01T02:28:35.772Z,17.07
2022-12-01T02:31:14.853Z,17.77
2022-12-01T02:33:51.389Z,16.87
2022-12-01T02:36:27.852Z,17.27
2022-12-01T02:39:00.557Z,18.07
2022-12-01T02:41:31.491Z,16.83
2022-12-01T02:44:08.217Z,16.70
2022-12-01T02:46:42.112Z,17.07
2022-12-01T02:49:16.876Z,16.80
2022-12-01T02:51:46.716Z,15.43
2022-12-01T02:54:16.111Z,17.23
2022-12-01T02:56:46.265Z,17.40
2022-12-01T02:59:16.038Z,17.83
2022-12-01T03:01:57.235Z,16.70
2022-12-01T03:04:43.185Z,16.87
2022-12-01T03:07:27.255Z,16.67
2022-12-01T03:10:03.957Z,17.53
2022-12-01T03:12:40.834Z,15.93
2022-12-01T03:15:13.723Z,17.87
2022-12-01T03:17:52.252Z,16.47
2022-12-01T03:20:26.060Z,16.50
2022-12-01T03:23:01.180Z,18.37
2022-12-01T03:25:31.238Z,17.73
2022-12-01T03:30:53.661Z,17.53
2022-12-01T03:33:27.897Z,17.27
2022-12-01T03:36:02.476Z,18.17
2022-12-01T03:38:32.076Z,18.27
2022-12-01T03:41:05.440Z,16.77
2022-12-01T03:43:39.562Z,15.27
2022-12-01T03:46:11.578Z,19.20
2022-12-01T03:48:41.934Z,15.60
2022-12-01T03:51:16.191Z,17.80
2022-12-01T03:53:51.844Z,16.80
2022-12-01T03:56:23.294Z,16.63
2022-12-01T03:58:55.567Z,16.60
2022-12-01T04:01:23.826Z,16.97
2022-12-01T04:03:53.502Z,18.77
2022-12-01T04:06:21.512Z,18.80
2022-12-01T04:08:49.791Z,17.70
2022-12-01T04:11:35.648Z,16.17
2022-12-01T04:14:03.927Z,16.93
2022-12-01T04:16:32.037Z,16.43
2022-12-01T04:19:01.794Z,17.70
2022-12-01T04:21:29.862Z,17.07
2022-12-01T04:24:01.213Z,15.77
2022-12-01T04:26:30.127Z,17.37
2022-12-01T04:28:58.527Z,16.43
2022-12-01T04:31:26.750Z,15.00
2022-12-01T04:33:55.856Z,16.53
2022-12-01T04:36:25.229Z,16.00
2022-12-01T04:38:53.634Z,15.27
2022-12-01T04:41:21.808Z,15.83
2022-12-01T04:43:50.335Z,15.70
2022-12-01T04:46:18.413Z,16.23
2022-12-01T04:48:46.690Z,15.80
2022-12-01T04:51:14.757Z,17.17
2022-12-01T04:53:44.407Z,16.33
2022-12-01T04:56:12.444Z,15.87
2022-12-01T04:58:40.799Z,15.97
2022-12-01T05:01:11.433Z,16.23
2022-12-01T05:03:41.040Z,15.43
2022-12-01T05:06:11.437Z,14.93
2022-12-01T05:08:39.823Z,16.03
2022-12-01T05:11:12.110Z,15.73
2022-12-01T05:13:41.767Z,15.77
2022-12-01T05:16:12.253Z,14.27
2022-12-01T05:18:41.173Z,15.90
2022-12-01T05:21:10.781Z,16.40
2022-12-01T05:23:39.671Z,15.07
2022-12-01T05:26:10.321Z,16.83
2022-12-01T05:28:40.954Z,16.17
2022-12-01T05:31:09.062Z,16.33
2022-12-01T05:33:37.463Z,14.90
2022-12-01T05:36:06.084Z,15.00
2022-12-01T05:38:34.397Z,16.90
2022-12-01T05:41:02.363Z,17.53
2022-12-01T05:43:31.989Z,17.03
2022-12-01T05:46:00.218Z,15.47
2022-12-01T05:48:28.638Z,17.03
2022-12-01T05:50:56.749Z,16.17
2022-12-01T05:53:25.259Z,16.60
2022-12-01T05:55:54.459Z,18.67
2022-12-01T05:58:23.626Z,16.47
2022-12-01T06:00:53.350Z,17.60
2022-12-01T06:03:21.651Z,16.87
2022-12-01T06:05:49.763Z,16.10
2022-12-01T06:08:18.111Z,16.50
2022-12-01T06:10:46.138Z,17.27
2022-12-01T06:13:14.598Z,17.10
2022-12-01T06:15:42.989Z,16.43
2022-12-01T06:18:12.802Z,17.07
2022-12-01T06:20:40.861Z,15.20
2022-12-01T06:23:09.547Z,16.47
2022-12-01T06:25:37.661Z,16.17
2022-12-01T06:28:05.947Z,14.93
2022-12-01T06:30:34.077Z,16.93
2022-12-01T06:33:02.579Z,16.30
2022-12-01T06:35:32.004Z,17.43
2022-12-01T06:38:00.359Z,16.03
2022-12-01T06:40:29.201Z,17.10
2022-12-01T06:43:01.512Z,15.80
2022-12-01T06:45:30.592Z,14.70
2022-12-01T06:47:59.175Z,16.40
2022-12-01T06:50:27.692Z,16.00
2022-12-01T06:52:59.256Z,17.70
2022-12-01T06:55:27.546Z,17.30
2022-12-01T06:57:56.448Z,18.67
2022-12-01T07:00:25.276Z,16.80
2022-12-01T07:02:53.622Z,16.00
2022-12-01T07:05:22.128Z,15.63
2022-12-01T07:07:53.793Z,17.73
2022-12-01T07:10:25.975Z,16.50
2022-12-01T07:12:57.102Z,14.77
2022-12-01T07:15:25.341Z,15.87
2022-12-01T07:17:53.854Z,16.50
2022-12-01T07:20:21.847Z,17.53
2022-12-01T07:22:50.147Z,14.53
2022-12-01T07:25:18.223Z,15.93
2022-12-01T07:27:47.841Z,15.77
2022-12-01T07:30:16.171Z,15.50
2022-12-01T07:32:44.432Z,15.43
2022-12-01T07:35:12.472Z,15.13
2022-12-01T07:37:40.829Z,16.67
2022-12-01T07:40:10.833Z,16.43
2022-12-01T07:42:42.165Z,15.43
2022-12-01T07:45:11.850Z,15.13
2022-12-01T07:47:40.396Z,14.80
2022-12-01T07:50:09.385Z,14.80
2022-12-01T07:52:38.000Z,15.93
2022-12-01T07:55:07.280Z,15.47
2022-12-01T07:57:35.665Z,15.93
2022-12-01T08:00:04.876Z,15.83
2022-12-01T08:02:41.631Z,15.77
2022-12-01T08:05:10.396Z,16.37
2022-12-01T08:07:38.738Z,16.10
2022-12-01T08:10:07.536Z,15.67
2022-12-01T08:12:35.872Z,16.17
2022-12-01T08:15:04.552Z,15.90
2022-12-01T08:17:33.159Z,16.80
2022-12-01T08:20:02.583Z,17.07
2022-12-01T08:22:30.964Z,17.47
2022-12-01T08:24:59.261Z,15.50
2022-12-01T08:27:27.925Z,16.67
2022-12-01T08:29:55.935Z,17.43
2022-12-01T08:32:24.382Z,15.87
2022-12-01T08:34:53.781Z,16.27
2022-12-01T08:37:23.560Z,16.43
2022-12-01T08:39:51.808Z,16.63
2022-12-01T08:42:21.113Z,17.17
2022-12-01T08:44:49.301Z,16.37
2022-12-01T08:47:19.013Z,19.00
2022-12-01T08:49:47.727Z,16.70
2022-12-01T08:52:16.447Z,19.33
2022-12-01T08:54:45.928Z,17.67
2022-12-01T08:57:14.332Z,18.33
2022-12-01T08:59:44.144Z,16.87
2022-12-01T09:02:15.771Z,19.30
2022-12-01T09:04:44.518Z,18.90
2022-12-01T09:07:15.060Z,19.50
2022-12-01T09:09:45.357Z,18.77
2022-12-01T09:12:14.739Z,18.50
2022-12-01T09:14:47.924Z,17.60
2022-12-01T09:17:17.975Z,18.33
2022-12-01T09:19:46.586Z,17.83
2022-12-01T09:22:15.496Z,19.27
2022-12-01T09:24:45.125Z,17.80
2022-12-01T09:27:13.707Z,17.50
2022-12-01T09:29:41.757Z,18.70
2022-12-01T09:32:10.108Z,18.30
2022-12-01T09:34:38.281Z,17.47
2022-12-01T09:37:06.908Z,17.47
2022-12-01T09:39:35.068Z,16.30
2022-12-01T09:42:09.544Z,16.00
2022-12-01T09:44:42.725Z,16.47
2022-12-01T09:47:19.046Z,18.17
2022-12-01T09:49:55.306Z,17.77
2022-12-01T09:52:25.392Z,16.17
2022-12-01T09:54:55.471Z,17.30
2022-12-01T09:57:31.900Z,17.03
2022-12-01T10:00:03.369Z,17.00
2022-12-01T10:02:44.065Z,16.57
2022-12-01T10:05:16.219Z,17.70
2022-12-01T10:07:49.013Z,16.70
2022-12-01T10:10:21.548Z,17.70
2022-12-01T10:12:51.382Z,17.37
2022-12-01T10:15:30.240Z,16.07
2022-12-01T10:18:11.238Z,15.97
2022-12-01T10:20:45.890Z,15.17
2022-12-01T10:23:41.979Z,16.73
2022-12-01T10:26:15.325Z,15.83
2022-12-01T10:29:08.536Z,16.23
2022-12-01T10:31:44.195Z,16.47
2022-12-01T10:34:23.303Z,16.07
2022-12-01T10:36:52.152Z,15.07
2022-12-01T10:39:30.481Z,14.83
2022-12-01T10:42:06.866Z,15.37
2022-12-01T10:44:37.199Z,15.63
2022-12-01T10:47:10.614Z,16.37
2022-12-01T10:49:40.777Z,15.77
2022-12-01T10:52:27.004Z,15.70
2022-12-01T10:54:55.290Z,16.57
2022-12-01T10:57:24.591Z,17.57
2022-12-01T10:59:57.978Z,17.23
2022-12-01T11:02:29.718Z,18.57
2022-12-01T11:05:01.059Z,16.67
2022-12-01T11:07:32.938Z,16.27
2022-12-01T11:10:14.569Z,17.40
2022-12-01T11:12:43.518Z,16.33
2022-12-01T11:15:23.654Z,17.07
2022-12-01T11:17:59.465Z,18.67
2022-12-01T11:20:31.819Z,17.83
2022-12-01T11:23:24.388Z,18.83
2022-12-01T11:26:15.841Z,16.90
2022-12-01T11:28:53.256Z,16.53
2022-12-01T11:31:26.039Z,17.30
2022-12-01T11:33:56.969Z,16.07
2022-12-01T11:36:33.923Z,15.57
2022-12-01T11:39:02.930Z,16.50
2022-12-01T11:41:36.666Z,16.90
2022-12-01T11:44:22.475Z,17.87
2022-12-01T11:47:21.461Z,16.17
2022-12-01T11:49:53.306Z,16.23
2022-12-01T11:52:28.284Z,15.67
2022-12-01T11:54:58.968Z,17.90
2022-12-01T11:57:36.137Z,16.77
2022-12-01T12:00:14.192Z,16.80
2022-12-01T12:02:57.240Z,18.00
2022-12-01T12:05:43.246Z,17.63
2022-12-01T12:08:21.766Z,17.43
2022-12-01T12:10:56.719Z,19.00
2022-12-01T12:13:52.525Z,16.70
2022-12-01T12:16:33.663Z,17.17
2022-12-01T12:19:18.477Z,17.47
2022-12-01T12:22:08.736Z,17.27
2022-12-01T12:24:47.367Z,16.03
2022-12-01T12:27:22.094Z,18.37
2022-12-01T12:30:18.987Z,16.63
2022-12-01T12:33:22.238Z,16.93
2022-12-01T12:36:03.428Z,17.60
2022-12-01T12:38:52.380Z,17.33
2022-12-01T12:41:30.567Z,17.60
2022-12-01T12:44:10.357Z,17.43
2022-12-01T12:46:49.297Z,16.97
2022-12-01T12:49:28.930Z,17.43
2022-12-01T12:52:08.696Z,18.93
2022-12-01T12:54:46.240Z,17.90
2022-12-01T12:57:26.888Z,17.77
2022-12-01T13:00:00.897Z,18.70
2022-12-01T13:02:35.693Z,18.03
2022-12-01T13:05:11.072Z,19.43
2022-12-01T13:07:46.996Z,18.17
2022-12-01T13:10:26.163Z,19.03
2022-12-01T13:13:00.370Z,19.27
2022-12-01T13:15:30.543Z,21.13
2022-12-01T13:18:04.244Z,21.07
2022-12-01T13:20:35.423Z,19.40
2022-12-01T13:23:05.562Z,18.17
2022-12-01T13:25:39.465Z,19.27
2022-12-01T13:28:17.924Z,18.77
2022-12-01T13:31:03.417Z,18.40
2022-12-01T13:33:33.119Z,20.53
2022-12-01T13:36:38.022Z,19.87
2022-12-01T13:38:59.872Z,17.93
2022-12-01T13:41:32.815Z,19.13
2022-12-01T13:44:04.653Z,18.40
2022-12-01T13:46:50.300Z,17.63
2022-12-01T13:49:42.136Z,18.87
2022-12-01T13:52:31.718Z,17.93
2022-12-01T13:55:28.991Z,18.90
2022-12-01T13:58:23.341Z,21.37
2022-12-01T14:00:52.140Z,18.77
2022-12-01T14:03:41.681Z,19.20
2022-12-01T14:06:25.838Z,19.43
2022-12-01T14:08:57.758Z,18.70
2022-12-01T14:11:29.361Z,18.27
2022-12-01T14:14:00.632Z,20.13
2022-12-01T14:16:48.190Z,19.17
2022-12-01T14:19:30.890Z,19.40
2022-12-01T14:21:59.944Z,17.60
2022-12-01T14:24:34.633Z,18.37
2022-12-01T14:27:05.781Z,19.00
2022-12-01T14:29:36.067Z,18.30
2022-12-01T14:32:25.631Z,19.03
2022-12-01T14:35:03.864Z,19.17
2022-12-01T14:37:49.769Z,19.13
2022-12-01T14:40:24.378Z,19.30
2022-12-01T14:43:15.590Z,19.57
2022-12-01T14:46:05.561Z,18.37
2022-12-01T14:48:39.334Z,16.00
2022-12-01T14:51:15.954Z,17.77
2022-12-01T14:53:47.569Z,16.63
2022-12-01T14:56:19.129Z,16.23
2022-12-01T14:58:57.444Z,15.63
2022-12-01T15:01:30.825Z,14.70
2022-12-01T15:04:01.338Z,15.47
2022-12-01T15:06:32.550Z,13.63
2022-12-01T15:12:00.711Z,11.23
2022-12-01T15:14:36.060Z,10.37
2022-12-01T15:17:05.820Z,10.77
2022-12-01T15:19:37.093Z,10.80
2022-12-01T15:22:12.767Z,11.80
2022-12-01T15:24:41.971Z,11.53
2022-12-01T15:27:26.742Z,12.37
2022-12-01T15:29:57.338Z,12.63
2022-12-01T15:32:27.105Z,11.20
2022-12-01T15:34:57.595Z,12.30
2022-12-01T15:37:28.043Z,11.37
2022-12-01T15:43:02.379Z,11.10
2022-12-01T15:45:43.692Z,10.90
2022-12-01T15:48:17.880Z,10.40
2022-12-01T15:50:50.633Z,11.33
2022-12-01T15:53:24.178Z,10.13
2022-12-01T15:55:58.790Z,11.13
2022-12-01T15:58:30.703Z,10.97
2022-12-01T16:01:03.538Z,10.47
2022-12-01T16:03:32.177Z,9.70
2022-12-01T16:06:00.717Z,9.97
2022-12-01T16:08:29.372Z,10.47
2022-12-01T16:11:12.538Z,9.90
2022-12-01T16:13:45.626Z,11.00
2022-12-01T16:16:40.827Z,10.50
2022-12-01T16:19:28.244Z,9.23
2022-12-01T16:22:04.674Z,10.33
2022-12-01T16:24:35.677Z,8.63
2022-12-01T16:27:06.595Z,9.87
2022-12-01T16:29:47.519Z,11.33
2022-12-01T16:32:22.067Z,9.77
2022-12-01T16:34:52.507Z,11.67
2022-12-01T16:37:22.452Z,9.93
2022-12-01T16:39:50.714Z,11.13
2022-12-01T16:42:21.624Z,12.43
2022-12-01T16:44:50.427Z,10.93
2022-12-01T16:47:22.102Z,11.83
2022-12-01T16:49:50.720Z,11.37
2022-12-01T16:55:23.812Z,12.70
2022-12-01T16:57:53.240Z,11.37
2022-12-01T17:00:22.049Z,12.10
2022-12-01T17:02:52.698Z,11.53
2022-12-01T17:05:21.003Z,11.93
2022-12-01T17:07:49.879Z,10.70
2022-12-01T17:10:18.598Z,11.27
2022-12-01T17:12:47.037Z,11.17
2022-12-01T17:15:16.891Z,10.63
2022-12-01T17:17:45.543Z,11.97
2022-12-01T17:20:15.248Z,10.57
2022-12-01T17:22:44.237Z,11.07
2022-12-01T17:25:12.223Z,12.10
2022-12-01T17:27:41.930Z,10.90
2022-12-01T17:30:11.643Z,10.33
2022-12-01T17:32:40.058Z,10.70
2022-12-01T17:35:09.014Z,9.87
2022-12-01T17:37:39.042Z,10.03
2022-12-01T17:40:09.619Z,11.47
2022-12-01T17:42:38.256Z,10.27
2022-12-01T17:45:07.431Z,9.63
2022-12-01T17:47:36.051Z,11.33
2022-12-01T17:50:04.852Z,10.03
2022-12-01T17:52:33.303Z,11.07
2022-12-01T17:55:02.717Z,10.63
2022-12-01T17:57:31.338Z,11.03
2022-12-01T18:00:01.425Z,10.53
2022-12-01T18:02:36.999Z,11.23
2022-12-01T18:05:06.104Z,10.40
2022-12-01T18:07:34.917Z,10.60
2022-12-01T18:10:05.351Z,9.97
2022-12-01T18:12:33.395Z,10.87
2022-12-01T18:15:02.586Z,12.53
2022-12-01T18:17:30.752Z,12.93
2022-12-01T18:19:59.171Z,11.60
2022-12-01T18:22:27.152Z,11.47
2022-12-01T18:24:56.333Z,10.83
2022-12-01T18:27:25.724Z,10.33
2022-12-01T18:29:54.126Z,10.37
2022-12-01T18:32:22.173Z,10.20
2022-12-01T18:34:50.949Z,10.20
2022-12-01T18:37:19.232Z,9.13
2022-12-01T18:39:47.989Z,8.93
2022-12-01T18:42:16.045Z,10.47
2022-12-01T18:44:45.673Z,9.27
2022-12-01T18:47:13.884Z,8.47
2022-12-01T18:49:42.195Z,7.97
2022-12-01T18:52:10.342Z,9.60
2022-12-01T18:54:38.765Z,9.87
2022-12-01T18:57:07.071Z,9.37
2022-12-01T18:59:35.694Z,9.73
2022-12-01T19:02:05.273Z,8.47
2022-12-01T19:04:33.751Z,9.40
2022-12-01T19:07:02.519Z,10.83
2022-12-01T19:09:31.188Z,9.43
2022-12-01T19:12:00.641Z,10.07
2022-12-01T19:14:29.550Z,10.00
2022-12-01T19:16:58.024Z,10.57
2022-12-01T19:19:27.762Z,10.37
2022-12-01T19:21:55.860Z,9.70
2022-12-01T19:24:24.537Z,10.47
2022-12-01T19:26:52.927Z,9.20
2022-12-01T19:29:21.275Z,11.73
2022-12-01T19:31:50.386Z,7.50
2022-12-01T19:34:18.802Z,8.23
2022-12-01T19:36:49.825Z,9.43
2022-12-01T19:39:18.285Z,9.73
2022-12-01T19:41:46.396Z,10.33
2022-12-01T19:44:14.904Z,9.57
2022-12-01T19:46:43.503Z,9.47
2022-12-01T19:49:12.304Z,11.10
2022-12-01T19:51:41.440Z,9.17
2022-12-01T19:54:14.987Z,10.27
2022-12-01T19:56:43.220Z,10.83
2022-12-01T19:59:13.475Z,9.60
2022-12-01T20:01:42.364Z,9.73
2022-12-01T20:04:10.850Z,9.87
2022-12-01T20:06:39.360Z,8.77
2022-12-01T20:09:09.461Z,8.43
2022-12-01T20:11:41.628Z,9.07
2022-12-01T20:14:11.672Z,7.80
2022-12-01T20:16:39.899Z,7.57
2022-12-01T20:19:09.133Z,8.20
2022-12-01T20:21:42.506Z,8.23
2022-12-01T20:24:16.421Z,8.30
2022-12-01T20:26:48.158Z,8.07
2022-12-01T20:29:18.990Z,8.63
2022-12-01T20:31:47.827Z,10.23
2022-12-01T20:34:18.777Z,9.93
2022-12-01T20:36:47.562Z,8.97
2022-12-01T20:39:16.657Z,10.60
2022-12-01T20:41:46.167Z,10.70
2022-12-01T20:44:15.454Z,10.30
2022-12-01T20:46:45.719Z,10.17
2022-12-01T20:49:15.479Z,10.57
2022-12-01T20:51:44.004Z,9.90
2022-12-01T20:54:30.451Z,9.73
2022-12-01T20:57:00.690Z,9.83
2022-12-01T20:59:29.675Z,9.90
2022-12-01T21:01:59.578Z,10.73
2022-12-01T21:04:28.072Z,9.53
2022-12-01T21:06:57.213Z,8.87
2022-12-01T21:09:28.868Z,11.30
2022-12-01T21:12:20.656Z,9.67
2022-12-01T21:14:57.288Z,8.93
2022-12-01T21:17:32.930Z,8.77
2022-12-01T21:20:07.084Z,9.57
2022-12-01T21:22:37.573Z,8.10
2022-12-01T21:25:12.240Z,8.20
2022-12-01T21:27:44.173Z,8.67
2022-12-01T21:30:24.884Z,8.00
2022-12-01T21:32:54.786Z,9.03
2022-12-01T21:35:25.925Z,8.47
2022-12-01T21:37:59.658Z,8.67
2022-12-01T21:40:28.769Z,9.60
2022-12-01T21:43:03.350Z,9.47
2022-12-01T21:45:32.844Z,9.17
2022-12-01T21:48:07.571Z,9.87
2022-12-01T21:50:36.064Z,9.00
2022-12-01T21:53:14.068Z,9.30
2022-12-01T21:55:44.489Z,8.40
2022-12-01T21:58:34.409Z,8.43
2022-12-01T22:01:03.804Z,9.10
2022-12-01T22:03:34.084Z,9.20
2022-12-01T22:06:29.311Z,9.83
2022-12-01T22:09:01.343Z,8.50
2022-12-01T22:11:37.165Z,8.07
2022-12-01T22:14:20.917Z,8.17
2022-12-01T22:17:20.210Z,8.07
2022-12-01T22:19:57.137Z,7.53
2022-12-01T22:22:27.288Z,7.90
2022-12-01T22:24:59.415Z,7.17
2022-12-01T22:27:30.603Z,9.50
2022-12-01T22:30:02.777Z,8.10
2022-12-01T22:32:38.739Z,8.13
2022-12-01T22:35:22.940Z,9.03
2022-12-01T22:37:53.309Z,8.57
2022-12-01T22:40:48.881Z,8.63
2022-12-01T22:43:24.698Z,11.73
2022-12-01T22:46:27.357Z,11.17
2022-12-01T22:48:57.557Z,11.73
2022-12-01T22:51:31.604Z,11.53
2022-12-01T22:54:07.118Z,12.93
2022-12-01T22:56:38.853Z,11.80
2022-12-01T22:59:15.612Z,12.43
2022-12-01T23:01:50.328Z,11.67
2022-12-01T23:04:27.430Z,12.20
2022-12-01T23:07:13.428Z,12.03
2022-12-01T23:09:43.977Z,12.10
2022-12-01T23:12:28.738Z,10.97
2022-12-01T23:14:59.475Z,11.37
2022-12-01T23:17:31.187Z,10.77
2022-12-01T23:20:12.847Z,9.70
2022-12-01T23:22:41.283Z,10.50
2022-12-01T23:25:15.334Z,11.13
2022-12-01T23:27:44.126Z,10.43
2022-12-01T23:30:14.392Z,9.97
2022-12-01T23:32:44.002Z,10.70
2022-12-01T23:35:16.642Z,12.03
2022-12-01T23:37:47.399Z,10.77
2022-12-01T23:40:20.304Z,10.43
2022-12-01T23:42:48.694Z,10.73
2022-12-01T23:45:20.422Z,11.43
2022-12-01T23:47:50.753Z,10.47
2022-12-01T23:50:22.439Z,10.87
2022-12-01T23:52:50.479Z,11.83
2022-12-01T23:55:22.803Z,10.30
2022-12-01T23:57:52.320Z,11.20
